Platitera Tonouranon — SX7180 — position and weather

sailwx.info

Track history (hours):
 
Tides and Currents Weather Stations Pressure Air Temp Water Temp Dewpoint Dewpoint Depression Visibility Wind Speed Wind Dir Waves Ship Positions

Platitera Tonouranon

Last reported at 2017-Sep-25 20:31 UTC. Time now 2017-Sep-25 20:40 UTC.
Position N 37°56' E 023°41'.

Length 55 m; draft 3.8 m.

Type: Ship (hazmat cat A). MMSI: 237038200.

Date/timePositionNaut miles runAvg speedWind from/ knotsBaromVisibWave heightAir tempDewpointWater temp
2017-Sep-25 20:31N 37°56' E 023°41'0 0.0
2017-Sep-25 20:00N 37°56' E 023°41'0 0.0
2017-Sep-25 19:30N 37°56' E 023°41'0 0.0
2017-Sep-25 19:00N 37°56' E 023°41'0 0.0
2017-Sep-25 18:30N 37°56' E 023°41'0 0.0
2017-Sep-25 18:00N 37°56' E 023°41'0 0.0
2017-Sep-25 17:30N 37°56' E 023°41'0 0.0
2017-Sep-25 17:01N 37°56' E 023°41'3 6.8
2017-Sep-25 16:30N 37°54' E 023°38'611.7
2017-Sep-25 16:00N 37°50' E 023°33'612.0
2017-Sep-25 15:30N 37°47' E 023°26'2 0.9
2017-Sep-25 13:13N 37°45' E 023°26'311.5
2017-Sep-25 12:57N 37°42' E 023°25'912.0
2017-Sep-25 12:13N 37°33' E 023°25'11 2.0
2017-Sep-25 06:36N 37°40' E 023°36'311.9
2017-Sep-25 06:18N 37°43' E 023°37'411.8
2017-Sep-25 06:00N 37°47' E 023°38'611.9
2017-Sep-25 05:30N 37°53' E 023°39'4 7.2
2017-Sep-25 05:00N 37°56' E 023°41'0 0.0
2017-Sep-25 04:30N 37°56' E 023°41'0 0.0
2017-Sep-25 04:00N 37°56' E 023°41'0 0.0
2017-Sep-25 03:30N 37°56' E 023°41'0 0.0
2017-Sep-25 03:01N 37°56' E 023°41'0 0.0
2017-Sep-25 02:31N 37°56' E 023°41'0 0.0
2017-Sep-25 02:00N 37°56' E 023°41'0 0.0
2017-Sep-25 01:31N 37°56' E 023°41'0 0.0
2017-Sep-25 01:00N 37°56' E 023°41'0 0.0
2017-Sep-25 00:31N 37°56' E 023°41'0 0.0
2017-Sep-25 00:01N 37°56' E 023°41'0 0.0
2017-Sep-24 23:31N 37°56' E 023°41'0 0.0
2017-Sep-24 23:01N 37°56' E 023°41'0 0.0
2017-Sep-24 22:31N 37°56' E 023°41'0 0.0
2017-Sep-24 22:01N 37°56' E 023°41'0 0.0
2017-Sep-24 21:30N 37°56' E 023°41'0 0.0
2017-Sep-24 21:01N 37°56' E 023°41'0 0.0
2017-Sep-24 20:31N 37°56' E 023°41'0 0.0
2017-Sep-24 20:00N 37°56' E 023°41'0 0.0
2017-Sep-24 19:30N 37°56' E 023°41'0 0.0
2017-Sep-24 19:00N 37°56' E 023°41'0 0.0
2017-Sep-24 18:30N 37°56' E 023°41'0 0.0
2017-Sep-24 18:01N 37°56' E 023°41'0 0.0
2017-Sep-24 17:30N 37°56' E 023°41'0 0.0
2017-Sep-24 17:00N 37°56' E 023°41'3 5.5
2017-Sep-24 16:31N 37°54' E 023°39'611.8
2017-Sep-24 16:00N 37°50' E 023°33'611.8
2017-Sep-24 15:31N 37°47' E 023°27'3 1.2
2017-Sep-24 13:18N 37°45' E 023°25'311.7
2017-Sep-24 13:01N 37°41' E 023°25'811.9
2017-Sep-24 12:18N 37°33' E 023°25'14 2.4
2017-Sep-24 06:28N 37°43' E 023°37'611.9
2017-Sep-24 06:00N 37°49' E 023°38'611.8
2017-Sep-24 05:31N 37°54' E 023°40'2 4.1
2017-Sep-24 05:01N 37°56' E 023°41'0 0.0
2017-Sep-24 04:30N 37°56' E 023°41'0 0.0
2017-Sep-24 04:01N 37°56' E 023°41'0 0.0
2017-Sep-24 03:31N 37°56' E 023°41'0 0.0
2017-Sep-24 03:00N 37°56' E 023°41'0 0.0
2017-Sep-24 02:30N 37°56' E 023°41'0 0.0
2017-Sep-24 02:00N 37°56' E 023°41'0 0.0
2017-Sep-24 01:31N 37°56' E 023°41'0 0.0
2017-Sep-24 01:01N 37°56' E 023°41'0 0.0
2017-Sep-24 00:31N 37°56' E 023°41'0 0.0
2017-Sep-24 00:00N 37°56' E 023°41'0 0.0
2017-Sep-23 23:31N 37°56' E 023°41'0 0.0
2017-Sep-23 23:00N 37°56' E 023°41'0 0.0
2017-Sep-23 22:31N 37°56' E 023°41'0 0.0
2017-Sep-23 22:01N 37°56' E 023°41'0 0.0
2017-Sep-23 21:31N 37°56' E 023°41'0 0.0
2017-Sep-23 21:01N 37°56' E 023°41'0 0.0
2017-Sep-23 20:31N 37°56' E 023°41'0 0.0
2017-Sep-23 20:01N 37°56' E 023°41'0 0.0
2017-Sep-22 02:01N 37°56' E 023°41'0 0.0
2017-Sep-22 01:31N 37°56' E 023°41'0 0.0
2017-Sep-22 01:01N 37°56' E 023°41'0 0.0
2017-Sep-22 00:31N 37°56' E 023°41'0 0.0
2017-Sep-22 00:01N 37°56' E 023°41'0 0.0
2017-Sep-21 23:30N 37°56' E 023°41'0 0.0
2017-Sep-21 23:00N 37°56' E 023°41'0 0.0
2017-Sep-21 22:30N 37°56' E 023°41'0 0.0
2017-Sep-21 22:01N 37°56' E 023°41'0 0.0
2017-Sep-21 21:31N 37°56' E 023°41'0 0.0
2017-Sep-21 21:00N 37°56' E 023°41'0 0.0
2017-Sep-21 20:30N 37°56' E 023°41'0 0.0
2017-Sep-21 20:01N 37°56' E 023°41'0 0.0
2017-Sep-21 19:31N 37°56' E 023°41'0 0.0
2017-Sep-21 19:00N 37°56' E 023°41'0 0.0
2017-Sep-21 18:31N 37°56' E 023°41'0 0.0
2017-Sep-21 18:01N 37°56' E 023°41'0 0.0
2017-Sep-21 17:30N 37°56' E 023°41'0 0.0
2017-Sep-21 17:00N 37°56' E 023°41'2 4.1
2017-Sep-21 16:31N 37°55' E 023°39'612.3
2017-Sep-21 16:01N 37°52' E 023°32'611.5
2017-Sep-21 15:30N 37°48' E 023°27'3 1.5
2017-Sep-21 13:15N 37°45' E 023°25'311.5
2017-Sep-21 12:59N 37°42' E 023°25'811.9
2017-Sep-21 12:19N 37°34' E 023°25'11 1.9
2017-Sep-21 06:37N 37°43' E 023°33'111.7
2017-Sep-21 06:30N 37°44' E 023°33'611.3
2017-Sep-21 06:00N 37°49' E 023°36'611.9
2017-Sep-21 05:30N 37°55' E 023°40'2 4.0
2017-Sep-21 05:00N 37°56' E 023°41'0 0.0
2017-Sep-21 04:30N 37°56' E 023°41'0 0.0
2017-Sep-21 04:00N 37°56' E 023°41'0 0.0
2017-Sep-21 03:30N 37°56' E 023°41'0 0.0
2017-Sep-21 03:00N 37°56' E 023°41'0 0.0
2017-Sep-21 02:30N 37°56' E 023°41'0 0.0
2017-Sep-21 02:00N 37°56' E 023°41'0 0.0
2017-Sep-21 01:30N 37°56' E 023°41'0 0.0
2017-Sep-21 01:00N 37°56' E 023°41'0 0.0
2017-Sep-21 00:30N 37°56' E 023°41'0 0.0
2017-Sep-21 00:00N 37°56' E 023°41'0 0.0
2017-Sep-20 23:30N 37°56' E 023°41'0 0.0
2017-Sep-20 23:00N 37°56' E 023°41'0 0.0
2017-Sep-20 22:30N 37°56' E 023°41'0 0.0
2017-Sep-20 22:00N 37°56' E 023°41'0 0.0
2017-Sep-20 21:30N 37°56' E 023°41'0 0.0
2017-Sep-20 21:00N 37°56' E 023°41'0 0.0
2017-Sep-20 20:30N 37°56' E 023°41'0 0.0
2017-Sep-20 20:00N 37°56' E 023°41'0 0.0
2017-Sep-20 19:30N 37°56' E 023°41'0 0.0
2017-Sep-20 19:00N 37°56' E 023°41'0 0.0
2017-Sep-20 18:30N 37°56' E 023°41'0 0.0
2017-Sep-20 18:00N 37°56' E 023°41'0 0.0
2017-Sep-20 17:30N 37°56' E 023°41'0 0.0
2017-Sep-20 17:00N 37°56' E 023°41'3 5.9
2017-Sep-20 16:30N 37°55' E 023°38'510.9
2017-Sep-20 16:00N 37°51' E 023°33'611.8
2017-Sep-20 15:30N 37°48' E 023°27'3 1.3
2017-Sep-20 13:11N 37°45' E 023°26'210.4
2017-Sep-20 13:00N 37°43' E 023°25'911.9
2017-Sep-20 12:15N 37°34' E 023°25'5 3.5
2017-Sep-20 10:53N 37°30' E 023°28'15 3.4
2017-Sep-20 06:23N 37°44' E 023°35'411.9
2017-Sep-20 06:00N 37°48' E 023°37'612.0
2017-Sep-20 05:30N 37°53' E 023°39'3 6.2
2017-Sep-20 05:00N 37°56' E 023°41'0 0.0
2017-Sep-20 04:30N 37°56' E 023°41'0 0.0
2017-Sep-20 04:00N 37°56' E 023°41'0 0.0
2017-Sep-20 03:30N 37°56' E 023°41'0 0.0
2017-Sep-20 03:00N 37°56' E 023°41'0 0.0
2017-Sep-20 02:30N 37°56' E 023°41'0 0.0
2017-Sep-20 02:00N 37°56' E 023°41'0 0.0
2017-Sep-20 01:30N 37°56' E 023°41'0 0.0
2017-Sep-20 01:00N 37°56' E 023°41'0 0.0
2017-Sep-20 00:30N 37°56' E 023°41'0 0.0
2017-Sep-20 00:00N 37°56' E 023°41'0 0.0
2017-Sep-19 23:30N 37°56' E 023°41'0 0.0
2017-Sep-19 23:00N 37°56' E 023°41'0 0.0
2017-Sep-19 22:30N 37°56' E 023°41'0 0.0
2017-Sep-19 22:00N 37°56' E 023°41'0 0.0
2017-Sep-19 21:30N 37°56' E 023°41'0 0.0
2017-Sep-19 21:00N 37°56' E 023°41'0 0.0
2017-Sep-19 20:30N 37°56' E 023°41'0 0.0
2017-Sep-19 20:00N 37°56' E 023°41'0 0.0
2017-Sep-19 19:30N 37°56' E 023°41'0 0.0
2017-Sep-19 19:00N 37°56' E 023°41'0 0.0
2017-Sep-19 18:30N 37°56' E 023°41'0 0.0
2017-Sep-19 18:00N 37°56' E 023°41'0 0.0
2017-Sep-19 17:30N 37°56' E 023°41'0 0.0
2017-Sep-19 17:00N 37°56' E 023°41'2 4.5
2017-Sep-19 16:30N 37°55' E 023°39'611.8
2017-Sep-19 16:00N 37°51' E 023°33'611.8
2017-Sep-19 15:30N 37°47' E 023°27'3 1.3
2017-Sep-19 13:14N 37°45' E 023°26'2 8.8
2017-Sep-19 13:00N 37°43' E 023°25'611.9
2017-Sep-19 12:30N 37°37' E 023°25'8 4.8
2017-Sep-19 10:51N 37°29' E 023°29'411.8
2017-Sep-19 10:30N 37°26' E 023°32'7 2.3
2017-Sep-19 07:14N 37°33' E 023°32'512.1
2017-Sep-19 06:48N 37°39' E 023°32'411.9
2017-Sep-19 06:30N 37°42' E 023°33'611.6
2017-Sep-19 06:00N 37°48' E 023°36'611.8
2017-Sep-19 05:30N 37°53' E 023°39'4 7.4
2017-Sep-19 05:00N 37°56' E 023°41'0 0.0
2017-Sep-19 04:30N 37°56' E 023°41'0 0.0
2017-Sep-19 04:00N 37°56' E 023°41'0 0.0
2017-Sep-19 03:30N 37°56' E 023°41'0 0.0
2017-Sep-19 03:00N 37°56' E 023°41'0 0.0
2017-Sep-19 02:30N 37°56' E 023°41'0 0.0
2017-Sep-19 02:00N 37°56' E 023°41'0 0.0
2017-Sep-19 01:30N 37°56' E 023°41'0 0.0
2017-Sep-19 01:00N 37°56' E 023°41'0 0.0
2017-Sep-19 00:30N 37°56' E 023°41'0 0.0
2017-Sep-19 00:00N 37°56' E 023°41'0 0.0
2017-Sep-18 23:30N 37°56' E 023°41'0 0.0
2017-Sep-18 23:00N 37°56' E 023°41'0 0.0
2017-Sep-18 22:30N 37°56' E 023°41'0 0.0
2017-Sep-18 22:00N 37°56' E 023°41'0 0.0
2017-Sep-18 21:30N 37°56' E 023°41'0 0.0
2017-Sep-18 21:00N 37°56' E 023°41'0 0.0
2017-Sep-18 20:30N 37°56' E 023°41'0 0.0
2017-Sep-18 20:00N 37°56' E 023°41'0 0.0
2017-Sep-18 19:30N 37°56' E 023°41'0 0.0
2017-Sep-18 19:00N 37°56' E 023°41'0 0.0
2017-Sep-18 18:30N 37°56' E 023°41'0 0.0
2017-Sep-18 18:00N 37°56' E 023°41'0 0.0
2017-Sep-18 17:30N 37°56' E 023°41'0 0.0
2017-Sep-18 17:00N 37°56' E 023°41'2 4.5
2017-Sep-18 16:30N 37°55' E 023°39'611.9
2017-Sep-18 16:00N 37°51' E 023°33'611.8
2017-Sep-18 15:30N 37°47' E 023°27'3 1.3
2017-Sep-18 13:15N 37°45' E 023°26'2 9.4
2017-Sep-18 13:00N 37°42' E 023°25'1011.9
2017-Sep-18 12:10N 37°33' E 023°25'4 3.2
2017-Sep-18 10:52N 37°29' E 023°29'411.8
2017-Sep-18 10:30N 37°26' E 023°32'8 2.6
2017-Sep-18 07:24N 37°34' E 023°32'612.1
2017-Sep-18 06:57N 37°40' E 023°33'511.8
2017-Sep-18 06:30N 37°45' E 023°34'611.7
2017-Sep-18 06:00N 37°50' E 023°38'611.9
2017-Sep-18 05:30N 37°55' E 023°40'1 2.0
2017-Sep-18 05:00N 37°56' E 023°41'0 0.0
2017-Sep-18 04:30N 37°56' E 023°41'0 0.0
2017-Sep-18 04:00N 37°56' E 023°41'0 0.0
2017-Sep-18 03:30N 37°56' E 023°41'0 0.0
2017-Sep-18 03:00N 37°56' E 023°41'0 0.0
2017-Sep-18 02:30N 37°56' E 023°41'0 0.0
2017-Sep-18 02:00N 37°56' E 023°41'0 0.0
2017-Sep-18 01:30N 37°56' E 023°41'0 0.0
2017-Sep-18 01:00N 37°56' E 023°41'0 0.0
2017-Sep-18 00:30N 37°56' E 023°41'0 0.0
2017-Sep-18 00:00N 37°56' E 023°41'0 0.0
2017-Sep-17 23:30N 37°56' E 023°41'0 0.0
2017-Sep-17 23:00N 37°56' E 023°41'0 0.0
2017-Sep-17 22:30N 37°56' E 023°41'0 0.0
2017-Sep-17 22:00N 37°56' E 023°41'0 0.0
2017-Sep-17 21:30N 37°56' E 023°41'0 0.0
2017-Sep-17 21:00N 37°56' E 023°41'0 0.0
2017-Sep-17 20:30N 37°56' E 023°41'0 0.0
2017-Sep-17 20:00N 37°56' E 023°41'0 0.0
2017-Sep-17 19:30N 37°56' E 023°41'0 0.0
2017-Sep-17 19:00N 37°56' E 023°41'0 0.0
2017-Sep-17 18:30N 37°56' E 023°41'0 0.0
2017-Sep-17 18:00N 37°56' E 023°41'0 0.0
2017-Sep-17 17:30N 37°56' E 023°41'0 0.0
2017-Sep-17 17:00N 37°56' E 023°41'2 3.0
2017-Sep-17 16:30N 37°55' E 023°40'611.5
2017-Sep-17 16:00N 37°52' E 023°34'611.8
2017-Sep-17 15:30N 37°48' E 023°28'4 1.6
2017-Sep-17 13:11N 37°45' E 023°26'210.2
2017-Sep-17 13:00N 37°43' E 023°25'18 3.4
2017-Sep-17 07:49N 37°26' E 023°32'1312.0
2017-Sep-17 06:46N 37°39' E 023°34'411.9
2017-Sep-17 06:24N 37°43' E 023°36'511.9
2017-Sep-17 06:00N 37°48' E 023°37'611.9
2017-Sep-17 05:30N 37°53' E 023°39'3 6.5
2017-Sep-17 05:00N 37°56' E 023°41'0 0.0
2017-Sep-17 04:30N 37°56' E 023°41'0 0.0
2017-Sep-17 04:00N 37°56' E 023°41'0 0.0
2017-Sep-17 03:30N 37°56' E 023°41'0 0.0
2017-Sep-17 03:00N 37°56' E 023°41'0 0.0
2017-Sep-17 02:30N 37°56' E 023°41'0 0.0
2017-Sep-17 02:00N 37°56' E 023°41'0 0.0
2017-Sep-17 01:30N 37°56' E 023°41'0 0.0
2017-Sep-17 01:00N 37°56' E 023°41'0 0.0
2017-Sep-17 00:30N 37°56' E 023°41'0 0.0
2017-Sep-17 00:00N 37°56' E 023°41'0 0.0
2017-Sep-16 23:30N 37°56' E 023°41'0 0.0
2017-Sep-16 23:00N 37°56' E 023°41'0 0.0
2017-Sep-16 22:30N 37°56' E 023°41'0 0.0
2017-Sep-16 22:00N 37°56' E 023°41'0 0.0
2017-Sep-16 21:30N 37°56' E 023°41'0 0.0
2017-Sep-16 21:00N 37°56' E 023°41'0 0.0
2017-Sep-16 20:30N 37°56' E 023°41'0 0.0
2017-Sep-16 20:00N 37°56' E 023°41'0 0.0
2017-Sep-16 19:30N 37°56' E 023°41'0 0.0
2017-Sep-16 19:00N 37°56' E 023°41'0 0.0
2017-Sep-16 18:31N 37°56' E 023°41'0 0.0
2017-Sep-16 18:00N 37°56' E 023°41'0 0.0
2017-Sep-16 17:30N 37°56' E 023°41'0 0.0
2017-Sep-16 17:00N 37°56' E 023°41'1 2.7
2017-Sep-16 16:30N 37°55' E 023°40'612.0
2017-Sep-16 16:00N 37°52' E 023°34'611.9
2017-Sep-16 15:30N 37°48' E 023°28'4 1.6
2017-Sep-16 13:11N 37°45' E 023°26'210.9
2017-Sep-16 13:00N 37°43' E 023°25'1012.0
2017-Sep-16 12:10N 37°33' E 023°25'13 2.3
2017-Sep-16 06:22N 37°44' E 023°35'411.9
2017-Sep-16 06:00N 37°48' E 023°37'611.9
2017-Sep-16 05:30N 37°53' E 023°39'3 6.0
2017-Sep-16 05:00N 37°56' E 023°41'0 0.0
2017-Sep-16 04:30N 37°56' E 023°41'0 0.0
2017-Sep-16 04:00N 37°56' E 023°41'0 0.0
2017-Sep-16 03:30N 37°56' E 023°41'0 0.0
2017-Sep-16 03:00N 37°56' E 023°41'0 0.0
2017-Sep-16 02:30N 37°56' E 023°41'0 0.0
2017-Sep-16 02:00N 37°56' E 023°41'0 0.0
2017-Sep-16 01:30N 37°56' E 023°41'0 0.0
2017-Sep-16 01:00N 37°56' E 023°41'0 0.0
2017-Sep-16 00:30N 37°56' E 023°41'0 0.0
2017-Sep-16 00:00N 37°56' E 023°41'0 0.0
2017-Sep-15 23:30N 37°56' E 023°41'0 0.0
2017-Sep-15 23:00N 37°56' E 023°41'0 0.0
2017-Sep-15 22:30N 37°56' E 023°41'0 0.0
2017-Sep-15 22:00N 37°56' E 023°41'0 0.0
2017-Sep-15 21:30N 37°56' E 023°41'0 0.0
2017-Sep-15 21:00N 37°56' E 023°41'  
Track history (hours):
 
Tides and Currents Weather Stations Pressure Air Temp Water Temp Dewpoint Dewpoint Depression Visibility Wind Speed Wind Dir Waves Ship Positions

Platitera Tonouranon

Last reported at 2017-Sep-25 20:31 UTC. Time now 2017-Sep-25 20:40 UTC.
Position N 37°56' E 023°41'.

Length 55 m; draft 3.8 m.

Type: Ship (hazmat cat A). MMSI: 237038200.

Date/timePositionNaut miles runAvg speedWind from/ knotsBaromVisibWave heightAir tempDewpointWater temp
2017-Sep-25 20:31N 37°56' E 023°41'0 0.0
2017-Sep-25 20:00N 37°56' E 023°41'0 0.0
2017-Sep-25 19:30N 37°56' E 023°41'0 0.0
2017-Sep-25 19:00N 37°56' E 023°41'0 0.0
2017-Sep-25 18:30N 37°56' E 023°41'0 0.0
2017-Sep-25 18:00N 37°56' E 023°41'0 0.0
2017-Sep-25 17:30N 37°56' E 023°41'0 0.0
2017-Sep-25 17:01N 37°56' E 023°41'3 6.8
2017-Sep-25 16:30N 37°54' E 023°38'611.7
2017-Sep-25 16:00N 37°50' E 023°33'612.0
2017-Sep-25 15:30N 37°47' E 023°26'2 0.9
2017-Sep-25 13:13N 37°45' E 023°26'311.5
2017-Sep-25 12:57N 37°42' E 023°25'912.0
2017-Sep-25 12:13N 37°33' E 023°25'11 2.0
2017-Sep-25 06:36N 37°40' E 023°36'311.9
2017-Sep-25 06:18N 37°43' E 023°37'411.8
2017-Sep-25 06:00N 37°47' E 023°38'611.9
2017-Sep-25 05:30N 37°53' E 023°39'4 7.2
2017-Sep-25 05:00N 37°56' E 023°41'0 0.0
2017-Sep-25 04:30N 37°56' E 023°41'0 0.0
2017-Sep-25 04:00N 37°56' E 023°41'0 0.0
2017-Sep-25 03:30N 37°56' E 023°41'0 0.0
2017-Sep-25 03:01N 37°56' E 023°41'0 0.0
2017-Sep-25 02:31N 37°56' E 023°41'0 0.0
2017-Sep-25 02:00N 37°56' E 023°41'0 0.0
2017-Sep-25 01:31N 37°56' E 023°41'0 0.0
2017-Sep-25 01:00N 37°56' E 023°41'0 0.0
2017-Sep-25 00:31N 37°56' E 023°41'0 0.0
2017-Sep-25 00:01N 37°56' E 023°41'0 0.0
2017-Sep-24 23:31N 37°56' E 023°41'0 0.0
2017-Sep-24 23:01N 37°56' E 023°41'0 0.0
2017-Sep-24 22:31N 37°56' E 023°41'0 0.0
2017-Sep-24 22:01N 37°56' E 023°41'0 0.0
2017-Sep-24 21:30N 37°56' E 023°41'0 0.0
2017-Sep-24 21:01N 37°56' E 023°41'0 0.0
2017-Sep-24 20:31N 37°56' E 023°41'0 0.0
2017-Sep-24 20:00N 37°56' E 023°41'0 0.0
2017-Sep-24 19:30N 37°56' E 023°41'0 0.0
2017-Sep-24 19:00N 37°56' E 023°41'0 0.0
2017-Sep-24 18:30N 37°56' E 023°41'0 0.0
2017-Sep-24 18:01N 37°56' E 023°41'0 0.0
2017-Sep-24 17:30N 37°56' E 023°41'0 0.0
2017-Sep-24 17:00N 37°56' E 023°41'3 5.5
2017-Sep-24 16:31N 37°54' E 023°39'611.8
2017-Sep-24 16:00N 37°50' E 023°33'611.8
2017-Sep-24 15:31N 37°47' E 023°27'3 1.2
2017-Sep-24 13:18N 37°45' E 023°25'311.7
2017-Sep-24 13:01N 37°41' E 023°25'811.9
2017-Sep-24 12:18N 37°33' E 023°25'14 2.4
2017-Sep-24 06:28N 37°43' E 023°37'611.9
2017-Sep-24 06:00N 37°49' E 023°38'611.8
2017-Sep-24 05:31N 37°54' E 023°40'2 4.1
2017-Sep-24 05:01N 37°56' E 023°41'0 0.0
2017-Sep-24 04:30N 37°56' E 023°41'0 0.0
2017-Sep-24 04:01N 37°56' E 023°41'0 0.0
2017-Sep-24 03:31N 37°56' E 023°41'0 0.0
2017-Sep-24 03:00N 37°56' E 023°41'0 0.0
2017-Sep-24 02:30N 37°56' E 023°41'0 0.0
2017-Sep-24 02:00N 37°56' E 023°41'0 0.0
2017-Sep-24 01:31N 37°56' E 023°41'0 0.0
2017-Sep-24 01:01N 37°56' E 023°41'0 0.0
2017-Sep-24 00:31N 37°56' E 023°41'0 0.0
2017-Sep-24 00:00N 37°56' E 023°41'0 0.0
2017-Sep-23 23:31N 37°56' E 023°41'0 0.0
2017-Sep-23 23:00N 37°56' E 023°41'0 0.0
2017-Sep-23 22:31N 37°56' E 023°41'0 0.0
2017-Sep-23 22:01N 37°56' E 023°41'0 0.0
2017-Sep-23 21:31N 37°56' E 023°41'0 0.0
2017-Sep-23 21:01N 37°56' E 023°41'0 0.0
2017-Sep-23 20:31N 37°56' E 023°41'0 0.0
2017-Sep-23 20:01N 37°56' E 023°41'0 0.0
2017-Sep-22 02:01N 37°56' E 023°41'0 0.0
2017-Sep-22 01:31N 37°56' E 023°41'0 0.0
2017-Sep-22 01:01N 37°56' E 023°41'0 0.0
2017-Sep-22 00:31N 37°56' E 023°41'0 0.0
2017-Sep-22 00:01N 37°56' E 023°41'0 0.0
2017-Sep-21 23:30N 37°56' E 023°41'0 0.0
2017-Sep-21 23:00N 37°56' E 023°41'0 0.0
2017-Sep-21 22:30N 37°56' E 023°41'0 0.0
2017-Sep-21 22:01N 37°56' E 023°41'0 0.0
2017-Sep-21 21:31N 37°56' E 023°41'0 0.0
2017-Sep-21 21:00N 37°56' E 023°41'0 0.0
2017-Sep-21 20:30N 37°56' E 023°41'0 0.0
2017-Sep-21 20:01N 37°56' E 023°41'0 0.0
2017-Sep-21 19:31N 37°56' E 023°41'0 0.0
2017-Sep-21 19:00N 37°56' E 023°41'0 0.0
2017-Sep-21 18:31N 37°56' E 023°41'0 0.0
2017-Sep-21 18:01N 37°56' E 023°41'0 0.0
2017-Sep-21 17:30N 37°56' E 023°41'0 0.0
2017-Sep-21 17:00N 37°56' E 023°41'2 4.1
2017-Sep-21 16:31N 37°55' E 023°39'612.3
2017-Sep-21 16:01N 37°52' E 023°32'611.5
2017-Sep-21 15:30N 37°48' E 023°27'3 1.5
2017-Sep-21 13:15N 37°45' E 023°25'311.5
2017-Sep-21 12:59N 37°42' E 023°25'811.9
2017-Sep-21 12:19N 37°34' E 023°25'11 1.9
2017-Sep-21 06:37N 37°43' E 023°33'111.7
2017-Sep-21 06:30N 37°44' E 023°33'611.3
2017-Sep-21 06:00N 37°49' E 023°36'611.9
2017-Sep-21 05:30N 37°55' E 023°40'2 4.0
2017-Sep-21 05:00N 37°56' E 023°41'0 0.0
2017-Sep-21 04:30N 37°56' E 023°41'0 0.0
2017-Sep-21 04:00N 37°56' E 023°41'0 0.0
2017-Sep-21 03:30N 37°56' E 023°41'0 0.0
2017-Sep-21 03:00N 37°56' E 023°41'0 0.0
2017-Sep-21 02:30N 37°56' E 023°41'0 0.0
2017-Sep-21 02:00N 37°56' E 023°41'0 0.0
2017-Sep-21 01:30N 37°56' E 023°41'0 0.0
2017-Sep-21 01:00N 37°56' E 023°41'0 0.0
2017-Sep-21 00:30N 37°56' E 023°41'0 0.0
2017-Sep-21 00:00N 37°56' E 023°41'0 0.0
2017-Sep-20 23:30N 37°56' E 023°41'0 0.0
2017-Sep-20 23:00N 37°56' E 023°41'0 0.0
2017-Sep-20 22:30N 37°56' E 023°41'0 0.0
2017-Sep-20 22:00N 37°56' E 023°41'0 0.0
2017-Sep-20 21:30N 37°56' E 023°41'0 0.0
2017-Sep-20 21:00N 37°56' E 023°41'0 0.0
2017-Sep-20 20:30N 37°56' E 023°41'0 0.0
2017-Sep-20 20:00N 37°56' E 023°41'0 0.0
2017-Sep-20 19:30N 37°56' E 023°41'0 0.0
2017-Sep-20 19:00N 37°56' E 023°41'0 0.0
2017-Sep-20 18:30N 37°56' E 023°41'0 0.0
2017-Sep-20 18:00N 37°56' E 023°41'0 0.0
2017-Sep-20 17:30N 37°56' E 023°41'0 0.0
2017-Sep-20 17:00N 37°56' E 023°41'3 5.9
2017-Sep-20 16:30N 37°55' E 023°38'510.9
2017-Sep-20 16:00N 37°51' E 023°33'611.8
2017-Sep-20 15:30N 37°48' E 023°27'3 1.3
2017-Sep-20 13:11N 37°45' E 023°26'210.4
2017-Sep-20 13:00N 37°43' E 023°25'911.9
2017-Sep-20 12:15N 37°34' E 023°25'5 3.5
2017-Sep-20 10:53N 37°30' E 023°28'15 3.4
2017-Sep-20 06:23N 37°44' E 023°35'411.9
2017-Sep-20 06:00N 37°48' E 023°37'612.0
2017-Sep-20 05:30N 37°53' E 023°39'3 6.2
2017-Sep-20 05:00N 37°56' E 023°41'0 0.0
2017-Sep-20 04:30N 37°56' E 023°41'0 0.0
2017-Sep-20 04:00N 37°56' E 023°41'0 0.0
2017-Sep-20 03:30N 37°56' E 023°41'0 0.0
2017-Sep-20 03:00N 37°56' E 023°41'0 0.0
2017-Sep-20 02:30N 37°56' E 023°41'0 0.0
2017-Sep-20 02:00N 37°56' E 023°41'0 0.0
2017-Sep-20 01:30N 37°56' E 023°41'0 0.0
2017-Sep-20 01:00N 37°56' E 023°41'0 0.0
2017-Sep-20 00:30N 37°56' E 023°41'0 0.0
2017-Sep-20 00:00N 37°56' E 023°41'0 0.0
2017-Sep-19 23:30N 37°56' E 023°41'0 0.0
2017-Sep-19 23:00N 37°56' E 023°41'0 0.0
2017-Sep-19 22:30N 37°56' E 023°41'0 0.0
2017-Sep-19 22:00N 37°56' E 023°41'0 0.0
2017-Sep-19 21:30N 37°56' E 023°41'0 0.0
2017-Sep-19 21:00N 37°56' E 023°41'0 0.0
2017-Sep-19 20:30N 37°56' E 023°41'0 0.0
2017-Sep-19 20:00N 37°56' E 023°41'0 0.0
2017-Sep-19 19:30N 37°56' E 023°41'0 0.0
2017-Sep-19 19:00N 37°56' E 023°41'0 0.0
2017-Sep-19 18:30N 37°56' E 023°41'0 0.0
2017-Sep-19 18:00N 37°56' E 023°41'0 0.0
2017-Sep-19 17:30N 37°56' E 023°41'0 0.0
2017-Sep-19 17:00N 37°56' E 023°41'2 4.5
2017-Sep-19 16:30N 37°55' E 023°39'611.8
2017-Sep-19 16:00N 37°51' E 023°33'611.8
2017-Sep-19 15:30N 37°47' E 023°27'3 1.3
2017-Sep-19 13:14N 37°45' E 023°26'2 8.8
2017-Sep-19 13:00N 37°43' E 023°25'611.9
2017-Sep-19 12:30N 37°37' E 023°25'8 4.8
2017-Sep-19 10:51N 37°29' E 023°29'411.8
2017-Sep-19 10:30N 37°26' E 023°32'7 2.3
2017-Sep-19 07:14N 37°33' E 023°32'512.1
2017-Sep-19 06:48N 37°39' E 023°32'411.9
2017-Sep-19 06:30N 37°42' E 023°33'611.6
2017-Sep-19 06:00N 37°48' E 023°36'611.8
2017-Sep-19 05:30N 37°53' E 023°39'4 7.4
2017-Sep-19 05:00N 37°56' E 023°41'0 0.0
2017-Sep-19 04:30N 37°56' E 023°41'0 0.0
2017-Sep-19 04:00N 37°56' E 023°41'0 0.0
2017-Sep-19 03:30N 37°56' E 023°41'0 0.0
2017-Sep-19 03:00N 37°56' E 023°41'0 0.0
2017-Sep-19 02:30N 37°56' E 023°41'0 0.0
2017-Sep-19 02:00N 37°56' E 023°41'0 0.0
2017-Sep-19 01:30N 37°56' E 023°41'0 0.0
2017-Sep-19 01:00N 37°56' E 023°41'0 0.0
2017-Sep-19 00:30N 37°56' E 023°41'0 0.0
2017-Sep-19 00:00N 37°56' E 023°41'0 0.0
2017-Sep-18 23:30N 37°56' E 023°41'0 0.0
2017-Sep-18 23:00N 37°56' E 023°41'0 0.0
2017-Sep-18 22:30N 37°56' E 023°41'0 0.0
2017-Sep-18 22:00N 37°56' E 023°41'0 0.0
2017-Sep-18 21:30N 37°56' E 023°41'0 0.0
2017-Sep-18 21:00N 37°56' E 023°41'0 0.0
2017-Sep-18 20:30N 37°56' E 023°41'0 0.0
2017-Sep-18 20:00N 37°56' E 023°41'0 0.0
2017-Sep-18 19:30N 37°56' E 023°41'0 0.0
2017-Sep-18 19:00N 37°56' E 023°41'0 0.0
2017-Sep-18 18:30N 37°56' E 023°41'0 0.0
2017-Sep-18 18:00N 37°56' E 023°41'0 0.0
2017-Sep-18 17:30N 37°56' E 023°41'0 0.0
2017-Sep-18 17:00N 37°56' E 023°41'2 4.5
2017-Sep-18 16:30N 37°55' E 023°39'611.9
2017-Sep-18 16:00N 37°51' E 023°33'611.8
2017-Sep-18 15:30N 37°47' E 023°27'3 1.3
2017-Sep-18 13:15N 37°45' E 023°26'2 9.4
2017-Sep-18 13:00N 37°42' E 023°25'1011.9
2017-Sep-18 12:10N 37°33' E 023°25'4 3.2
2017-Sep-18 10:52N 37°29' E 023°29'411.8
2017-Sep-18 10:30N 37°26' E 023°32'8 2.6
2017-Sep-18 07:24N 37°34' E 023°32'612.1
2017-Sep-18 06:57N 37°40' E 023°33'511.8
2017-Sep-18 06:30N 37°45' E 023°34'611.7
2017-Sep-18 06:00N 37°50' E 023°38'611.9
2017-Sep-18 05:30N 37°55' E 023°40'1 2.0
2017-Sep-18 05:00N 37°56' E 023°41'0 0.0
2017-Sep-18 04:30N 37°56' E 023°41'0 0.0
2017-Sep-18 04:00N 37°56' E 023°41'0 0.0
2017-Sep-18 03:30N 37°56' E 023°41'0 0.0
2017-Sep-18 03:00N 37°56' E 023°41'0 0.0
2017-Sep-18 02:30N 37°56' E 023°41'0 0.0
2017-Sep-18 02:00N 37°56' E 023°41'0 0.0
2017-Sep-18 01:30N 37°56' E 023°41'0 0.0
2017-Sep-18 01:00N 37°56' E 023°41'0 0.0
2017-Sep-18 00:30N 37°56' E 023°41'0 0.0
2017-Sep-18 00:00N 37°56' E 023°41'0 0.0
2017-Sep-17 23:30N 37°56' E 023°41'0 0.0
2017-Sep-17 23:00N 37°56' E 023°41'0 0.0
2017-Sep-17 22:30N 37°56' E 023°41'0 0.0
2017-Sep-17 22:00N 37°56' E 023°41'0 0.0
2017-Sep-17 21:30N 37°56' E 023°41'0 0.0
2017-Sep-17 21:00N 37°56' E 023°41'0 0.0
2017-Sep-17 20:30N 37°56' E 023°41'0 0.0
2017-Sep-17 20:00N 37°56' E 023°41'0 0.0
2017-Sep-17 19:30N 37°56' E 023°41'0 0.0
2017-Sep-17 19:00N 37°56' E 023°41'0 0.0
2017-Sep-17 18:30N 37°56' E 023°41'0 0.0
2017-Sep-17 18:00N 37°56' E 023°41'0 0.0
2017-Sep-17 17:30N 37°56' E 023°41'0 0.0
2017-Sep-17 17:00N 37°56' E 023°41'2 3.0
2017-Sep-17 16:30N 37°55' E 023°40'611.5
2017-Sep-17 16:00N 37°52' E 023°34'611.8
2017-Sep-17 15:30N 37°48' E 023°28'4 1.6
2017-Sep-17 13:11N 37°45' E 023°26'210.2
2017-Sep-17 13:00N 37°43' E 023°25'18 3.4
2017-Sep-17 07:49N 37°26' E 023°32'1312.0
2017-Sep-17 06:46N 37°39' E 023°34'411.9
2017-Sep-17 06:24N 37°43' E 023°36'511.9
2017-Sep-17 06:00N 37°48' E 023°37'611.9
2017-Sep-17 05:30N 37°53' E 023°39'3 6.5
2017-Sep-17 05:00N 37°56' E 023°41'0 0.0
2017-Sep-17 04:30N 37°56' E 023°41'0 0.0
2017-Sep-17 04:00N 37°56' E 023°41'0 0.0
2017-Sep-17 03:30N 37°56' E 023°41'0 0.0
2017-Sep-17 03:00N 37°56' E 023°41'0 0.0
2017-Sep-17 02:30N 37°56' E 023°41'0 0.0
2017-Sep-17 02:00N 37°56' E 023°41'0 0.0
2017-Sep-17 01:30N 37°56' E 023°41'0 0.0
2017-Sep-17 01:00N 37°56' E 023°41'0 0.0
2017-Sep-17 00:30N 37°56' E 023°41'0 0.0
2017-Sep-17 00:00N 37°56' E 023°41'0 0.0
2017-Sep-16 23:30N 37°56' E 023°41'0 0.0
2017-Sep-16 23:00N 37°56' E 023°41'0 0.0
2017-Sep-16 22:30N 37°56' E 023°41'0 0.0
2017-Sep-16 22:00N 37°56' E 023°41'0 0.0
2017-Sep-16 21:30N 37°56' E 023°41'0 0.0
2017-Sep-16 21:00N 37°56' E 023°41'0 0.0
2017-Sep-16 20:30N 37°56' E 023°41'0 0.0
2017-Sep-16 20:00N 37°56' E 023°41'0 0.0
2017-Sep-16 19:30N 37°56' E 023°41'0 0.0
2017-Sep-16 19:00N 37°56' E 023°41'0 0.0
2017-Sep-16 18:31N 37°56' E 023°41'0 0.0
2017-Sep-16 18:00N 37°56' E 023°41'0 0.0
2017-Sep-16 17:30N 37°56' E 023°41'0 0.0
2017-Sep-16 17:00N 37°56' E 023°41'1 2.7
2017-Sep-16 16:30N 37°55' E 023°40'612.0
2017-Sep-16 16:00N 37°52' E 023°34'611.9
2017-Sep-16 15:30N 37°48' E 023°28'4 1.6
2017-Sep-16 13:11N 37°45' E 023°26'210.9
2017-Sep-16 13:00N 37°43' E 023°25'1012.0
2017-Sep-16 12:10N 37°33' E 023°25'13 2.3
2017-Sep-16 06:22N 37°44' E 023°35'411.9
2017-Sep-16 06:00N 37°48' E 023°37'611.9
2017-Sep-16 05:30N 37°53' E 023°39'3 6.0
2017-Sep-16 05:00N 37°56' E 023°41'0 0.0
2017-Sep-16 04:30N 37°56' E 023°41'0 0.0
2017-Sep-16 04:00N 37°56' E 023°41'0 0.0
2017-Sep-16 03:30N 37°56' E 023°41'0 0.0
2017-Sep-16 03:00N 37°56' E 023°41'0 0.0
2017-Sep-16 02:30N 37°56' E 023°41'0 0.0
2017-Sep-16 02:00N 37°56' E 023°41'0 0.0
2017-Sep-16 01:30N 37°56' E 023°41'0 0.0
2017-Sep-16 01:00N 37°56' E 023°41'0 0.0
2017-Sep-16 00:30N 37°56' E 023°41'0 0.0
2017-Sep-16 00:00N 37°56' E 023°41'0 0.0
2017-Sep-15 23:30N 37°56' E 023°41'0 0.0
2017-Sep-15 23:00N 37°56' E 023°41'0 0.0
2017-Sep-15 22:30N 37°56' E 023°41'0 0.0
2017-Sep-15 22:00N 37°56' E 023°41'0 0.0
2017-Sep-15 21:30N 37°56' E 023°41'0 0.0
2017-Sep-15 21:00N 37°56' E 023°41'  

Dump ship's entire track history